Cornucopia Destiny — WDE6386 — position and weather

sailwx.info

Track history (hours):
 
Tides and Currents Weather Stations Pressure Air Temp Water Temp Dewpoint Dewpoint Depression Visibility Wind Speed Wind Dir Waves Ship Positions

Cornucopia Destiny

Owner: Sultan Wholesale LLC, Keyport, NJ. More information available from US FCC via Universal Licensing System and Coast Guard Vessel Documentation Center.

Last reported at 2018-May-21 01:23 UTC. Time now 2018-May-22 11:47 UTC.
Position N 40°45' W 074°01'.

Length 29 m; draft 2 m.

Type: Ship. MMSI: 367379570.

Date/timePositionNaut miles runAvg speedWind from/ knotsBaromVisibWave heightAir tempDewpointWater temp
2018-May-21 01:23N 40°45' W 074°01'2 4.3
2018-May-21 01:00N 40°44' W 074°01'2 4.4
2018-May-21 00:30N 40°41' W 074°02'2 3.0
2018-May-21 00:00N 40°42' W 074°00'1 1.3
2018-May-20 23:30N 40°42' W 073°60'2 3.7
2018-May-20 23:00N 40°44' W 074°01'  
2018-May-13 19:18N 40°45' W 074°01'0 1.6
2018-May-13 19:01N 40°45' W 074°01'1 2.7
2018-May-13 18:31N 40°43' W 074°01'1 2.4
2018-May-13 18:00N 40°42' W 074°02'1 2.5
2018-May-13 17:30N 40°41' W 074°02'2 3.7
2018-May-13 17:00N 40°42' W 074°00'1 2.6
2018-May-13 16:31N 40°43' W 074°01'2 4.1
2018-May-13 15:58N 40°45' W 074°01'0 0.0
2018-May-13 15:18N 40°45' W 074°01'0 0.0
2018-May-13 14:46N 40°45' W 074°01'0 0.0
2018-May-13 14:30N 40°45' W 074°01'  
2018-May-11 03:25N 40°45' W 074°01'0 0.1
2018-May-11 02:54N 40°45' W 074°01'1 0.7
2018-May-11 01:27N 40°46' W 074°00'  
Track history (hours):
 
Tides and Currents Weather Stations Pressure Air Temp Water Temp Dewpoint Dewpoint Depression Visibility Wind Speed Wind Dir Waves Ship Positions

Cornucopia Destiny

Owner: Sultan Wholesale LLC, Keyport, NJ. More information available from US FCC via Universal Licensing System and Coast Guard Vessel Documentation Center.

Last reported at 2018-May-21 01:23 UTC. Time now 2018-May-22 11:47 UTC.
Position N 40°45' W 074°01'.

Length 29 m; draft 2 m.

Type: Ship. MMSI: 367379570.

Date/timePositionNaut miles runAvg speedWind from/ knotsBaromVisibWave heightAir tempDewpointWater temp
2018-May-21 01:23N 40°45' W 074°01'2 4.3
2018-May-21 01:00N 40°44' W 074°01'2 4.4
2018-May-21 00:30N 40°41' W 074°02'2 3.0
2018-May-21 00:00N 40°42' W 074°00'1 1.3
2018-May-20 23:30N 40°42' W 073°60'2 3.7
2018-May-20 23:00N 40°44' W 074°01'  
2018-May-13 19:18N 40°45' W 074°01'0 1.6
2018-May-13 19:01N 40°45' W 074°01'1 2.7
2018-May-13 18:31N 40°43' W 074°01'1 2.4
2018-May-13 18:00N 40°42' W 074°02'1 2.5
2018-May-13 17:30N 40°41' W 074°02'2 3.7
2018-May-13 17:00N 40°42' W 074°00'1 2.6
2018-May-13 16:31N 40°43' W 074°01'2 4.1
2018-May-13 15:58N 40°45' W 074°01'0 0.0
2018-May-13 15:18N 40°45' W 074°01'0 0.0
2018-May-13 14:46N 40°45' W 074°01'0 0.0
2018-May-13 14:30N 40°45' W 074°01'  
2018-May-11 03:25N 40°45' W 074°01'0 0.1
2018-May-11 02:54N 40°45' W 074°01'1 0.7
2018-May-11 01:27N 40°46' W 074°00'  

Dump ship's entire track history